Time;durP1;ratioP1;P1;durP2;ratioP2;P2;SDS_P1;SDS_P2;PMS_P1;PMS_P2;Temp;Humidity;BMP_temperature;BMP_pressure;BME280_temperature;BME280_humidity;BME280_pressure;Samples;Min_cycle;Max_cycle;Signal;HPM_P1;HPM_P2
2023/03/08 00:01:12;;;;;;;1.80;1.52;;;0.00;99.90;;;;;;5025402;28;20099;-66
2023/03/08 00:03:38;;;;;;;1.77;1.40;;;;;;;;;;5029119;28;20056;-65
2023/03/08 00:06:08;;;;;;;5.45;1.77;;;;;;;;;;5011545;28;20045;-66
2023/03/08 00:08:34;;;;;;;6.45;1.30;;;;;;;;;;5004265;28;20084;-66
2023/03/08 00:11:00;;;;;;;2.95;1.40;;;;;;;;;;5027020;28;20065;-66
2023/03/08 00:13:26;;;;;;;5.40;1.67;;;;;;;;;;5028711;28;20061;-67
2023/03/08 00:15:51;;;;;;;1.75;1.25;;;;;;;;;;5010530;28;20038;-66
2023/03/08 00:18:18;;;;;;;6.93;1.60;;;;;;;;;;5008567;28;20115;-66
2023/03/08 00:20:44;;;;;;;2.13;1.33;;;;;;;;;;5008879;28;20434;-66
2023/03/08 00:23:10;;;;;;;3.67;1.60;;;;;;;;;;5009825;28;20115;-66
2023/03/08 00:25:36;;;;;;;3.70;1.30;;;;;;;;;;5011110;28;20041;-66
2023/03/08 00:28:02;;;;;;;3.50;1.27;;;;;;;;;;5029201;28;20083;-65
2023/03/08 00:30:28;;;;;;;3.97;1.40;;;;;;;;;;5028638;28;20056;-66
2023/03/08 00:32:54;;;;;;;3.80;1.55;;;;;;;;;;5008210;28;20049;-66
2023/03/08 00:35:20;;;;;;;3.17;1.27;;;;;;;;;;5028455;28;20052;-66
2023/03/08 00:37:45;;;;;;;3.17;1.30;;;;;;;;;;5024528;28;20040;-66
2023/03/08 00:40:11;;;;;;;3.45;1.38;;;-0.10;99.90;;;;;;5008499;28;20060;-66
2023/03/08 00:42:38;;;;;;;2.38;1.33;;;;;;;;;;5028617;28;20545;-66
2023/03/08 00:45:04;;;;;;;2.42;1.27;;;;;;;;;;5028419;28;20071;-66
2023/03/08 00:47:30;;;;;;;6.03;1.52;;;;;;;;;;5011427;28;20381;-66
2023/03/08 00:49:56;;;;;;;2.25;1.27;;;;;;;;;;5008296;28;20060;-67
2023/03/08 00:52:22;;;;;;;1.92;1.08;;;;;;;;;;5025706;28;20522;-66
2023/03/08 00:54:48;;;;;;;2.53;1.38;;;;;;;;;;5010846;28;20072;-66
2023/03/08 00:57:15;;;;;;;4.22;1.50;;;;;;;;;;5027831;28;20601;-66
2023/03/08 00:59:41;;;;;;;2.75;1.30;;;;;;;;;;5027865;28;20108;-65
2023/03/08 01:02:07;;;;;;;1.70;1.08;;;;;;;;;;5009976;28;20038;-66
2023/03/08 01:04:33;;;;;;;4.00;1.23;;;;;;;;;;5028622;28;20412;-66
2023/03/08 01:07:00;;;;;;;4.32;1.40;;;;;;;;;;5028092;28;20117;-66
2023/03/08 01:09:26;;;;;;;4.10;1.65;;;;;;;;;;5023580;28;20048;-65
2023/03/08 01:11:52;;;;;;;1.98;1.20;;;;;;;;;;5026568;28;20042;-66
2023/03/08 01:14:18;;;;;;;4.53;1.08;;;;;;;;;;5010638;28;20476;-67
2023/03/08 01:16:44;;;;;;;1.15;1.05;;;;;;;;;;5010645;28;20042;-66
2023/03/08 01:19:10;;;;;;;2.55;1.35;;;;;;;;;;5026931;28;20041;-66
2023/03/08 01:21:36;;;;;;;3.35;1.30;;;;;;;;;;5003725;28;20050;-66
2023/03/08 01:24:02;;;;;;;5.05;1.35;;;;;;;;;;5002968;28;20041;-66
2023/03/08 01:26:28;;;;;;;4.60;1.33;;;;;;;;;;5000424;28;20049;-66
2023/03/08 01:28:54;;;;;;;2.67;1.10;;;;;;;;;;5027725;28;20045;-66
2023/03/08 01:31:20;;;;;;;4.70;1.40;;;;;;;;;;5027588;28;20131;-66
2023/03/08 01:33:47;;;;;;;2.15;1.23;;;;;;;;;;5028198;28;20037;-66
2023/03/08 01:36:14;;;;;;;4.05;1.08;;;;;;;;;;5027629;28;20037;-65
2023/03/08 01:38:40;;;;;;;2.92;1.27;;;;;;;;;;5024913;28;20100;-66
2023/03/08 01:41:12;;;;;;;1.85;1.13;;;-0.30;99.90;;;;;;5009578;28;20041;-66
2023/03/08 01:43:39;;;;;;;2.97;1.48;;;;;;;;;;5007288;28;20502;-66
2023/03/08 01:46:24;;;;;;;2.85;1.40;;;;;;;;;;5025458;28;20491;-66
2023/03/08 01:48:53;;;;;;;5.93;1.50;;;;;;;;;;5004026;28;20041;-66
2023/03/08 01:51:29;;;;;;;4.13;1.08;;;;;;;;;;5025433;28;20144;-66
2023/03/08 01:53:57;;;;;;;3.65;1.27;;;;;;;;;;5008721;28;20053;-66
2023/03/08 01:56:23;;;;;;;1.60;1.00;;;;;;;;;;5027210;28;20110;-66
2023/03/08 01:58:50;;;;;;;3.83;1.00;;;;;;;;;;5027631;28;20063;-66
2023/03/08 02:01:17;;;;;;;4.05;1.42;;;-0.40;99.90;;;;;;5027321;28;20049;-66
2023/03/08 02:03:44;;;;;;;3.05;1.23;;;;;;;;;;5009342;28;20030;-66
2023/03/08 02:06:11;;;;;;;3.17;1.60;;;;;;;;;;5027108;28;20041;-66
2023/03/08 02:08:37;;;;;;;6.55;1.45;;;;;;;;;;5026356;28;20045;-66
2023/03/08 02:11:03;;;;;;;1.33;1.00;;;;;;;;;;5009494;28;20119;-66
2023/03/08 02:13:29;;;;;;;3.10;0.90;;;;;;;;;;5025494;28;20045;-66
2023/03/08 02:15:56;;;;;;;1.17;0.90;;;;;;;;;;5009316;28;20049;-66
2023/03/08 02:18:22;;;;;;;4.38;1.55;;;;;;;;;;5023302;28;20402;-66
2023/03/08 02:20:48;;;;;;;2.15;1.30;;;;;;;;;;5004974;28;20045;-66
2023/03/08 02:23:16;;;;;;;3.00;1.40;;;;;;;;;;5027046;28;20048;-66
2023/03/08 02:25:49;;;;;;;4.10;1.17;;;;;;;;;;5026220;28;20040;-66
2023/03/08 02:28:15;;;;;;;1.55;1.05;;;;;;;;;;5026651;28;20740;-66
2023/03/08 02:30:41;;;;;;;3.13;2.03;;;;;;;;;;5025438;28;20103;-66
2023/03/08 02:33:07;;;;;;;2.67;1.20;;;;;;;;;;5008641;28;20136;-66
2023/03/08 02:35:35;;;;;;;2.17;1.33;;;;;;;;;;5008731;28;20128;-66
2023/03/08 02:38:01;;;;;;;2.33;1.30;;;;;;;;;;5008286;28;20051;-66
2023/03/08 02:40:27;;;;;;;5.90;1.40;;;;;;;;;;5008316;28;20041;-66
2023/03/08 02:42:55;;;;;;;3.50;1.23;;;;;;;;;;5008512;28;20124;-66
2023/03/08 02:45:21;;;;;;;2.95;1.13;;;;;;;;;;5008267;28;20541;-66
2023/03/08 02:47:47;;;;;;;2.15;1.60;;;;;;;;;;5026035;28;20041;-66
2023/03/08 02:50:13;;;;;;;2.58;1.13;;;;;;;;;;5025923;28;20087;-67
2023/03/08 02:52:39;;;;;;;2.67;1.30;;;;;;;;;;5026159;28;20064;-66
2023/03/08 02:55:05;;;;;;;2.35;1.45;;;;;;;;;;5008226;28;20144;-65
2023/03/08 02:57:31;;;;;;;1.83;1.20;;;;;;;;;;5007567;28;20049;-66
2023/03/08 02:59:57;;;;;;;2.65;1.02;;;;;;;;;;5026190;28;20428;-66
2023/03/08 03:02:23;;;;;;;2.13;1.30;;;;;;;;;;5008474;28;20099;-65
2023/03/08 03:04:49;;;;;;;5.45;1.30;;;;;;;;;;5007422;28;20132;-67
2023/03/08 03:07:15;;;;;;;2.88;1.30;;;;;;;;;;5023420;28;20480;-66
2023/03/08 03:09:41;;;;;;;1.67;1.50;;;;;;;;;;5022618;28;20045;-66
2023/03/08 03:12:07;;;;;;;3.08;1.70;;;;;;;;;;5007540;28;20045;-65
2023/03/08 03:14:33;;;;;;;3.70;1.45;;;;;;;;;;5007839;28;20084;-65
2023/03/08 03:16:59;;;;;;;7.38;1.38;;;;;;;;;;5025883;28;20103;-66
2023/03/08 03:19:25;;;;;;;2.25;1.20;;;;;;;;;;5025830;28;20069;-66
2023/03/08 03:21:51;;;;;;;3.85;1.20;;;;;;;;;;5007354;28;20061;-66
2023/03/08 03:24:17;;;;;;;3.05;1.20;;;;;;;;;;4991635;28;20132;-65
2023/03/08 03:26:43;;;;;;;1.92;1.30;;;;;;;;;;5008208;28;20056;-66
2023/03/08 03:29:09;;;;;;;5.70;1.33;;;;;;;;;;5025680;28;20598;-66
2023/03/08 03:31:34;;;;;;;3.13;1.40;;;;;;;;;;5025596;28;20045;-65
2023/03/08 03:34:00;;;;;;;3.63;1.48;;;;;;;;;;5008332;28;20089;-66
2023/03/08 03:36:26;;;;;;;1.60;1.40;;;;;;;;;;5025696;28;20049;-66
2023/03/08 03:38:52;;;;;;;4.25;1.33;;;;;;;;;;5007881;28;20098;-66
2023/03/08 03:41:20;;;;;;;4.00;1.20;;;;;;;;;;5007389;28;20041;-66
2023/03/08 03:43:46;;;;;;;6.22;1.42;;;;;;;;;;5025163;28;20091;-65
2023/03/08 03:46:14;;;;;;;3.65;1.73;;;-0.60;99.90;;;;;;5025330;28;20749;-66
2023/03/08 03:48:40;;;;;;;8.38;1.83;;;;;;;;;;5007624;28;20053;-65
2023/03/08 03:51:07;;;;;;;2.85;1.20;;;;;;;;;;5024774;28;20037;-66
2023/03/08 03:53:34;;;;;;;4.05;1.23;;;;;;;;;;5025337;28;20054;-66
2023/03/08 03:56:08;;;;;;;3.53;1.42;;;;;;;;;;5007505;28;20049;-65
2023/03/08 03:58:34;;;;;;;2.60;1.40;;;;;;;;;;5004304;28;20095;-65
2023/03/08 04:01:00;;;;;;;1.55;1.40;;;;;;;;;;5004543;28;20809;-66
2023/03/08 04:03:26;;;;;;;2.33;1.15;;;-0.80;99.90;;;;;;5025596;28;20069;-65
2023/03/08 04:05:52;;;;;;;1.67;1.45;;;;;;;;;;5024930;28;20461;-66
2023/03/08 04:08:18;;;;;;;3.42;1.48;;;;;;;;;;5022661;28;20045;-67
2023/03/08 04:10:44;;;;;;;2.30;1.08;;;;;;;;;;5003030;28;20096;-66
2023/03/08 04:13:10;;;;;;;3.70;1.65;;;-1.20;99.90;;;;;;5007380;28;20053;-66
2023/03/08 04:15:36;;;;;;;3.17;1.98;;;;;;;;;;5025383;28;20124;-65
2023/03/08 04:18:02;;;;;;;2.88;1.98;;;;;;;;;;5007229;28;20136;-66
2023/03/08 04:20:28;;;;;;;5.70;1.58;;;;;;;;;;5025787;28;20049;-66
2023/03/08 04:22:54;;;;;;;3.50;1.30;;;;;;;;;;5029004;28;20399;-66
2023/03/08 04:25:20;;;;;;;1.77;1.08;;;;;;;;;;5028797;28;20037;-66
2023/03/08 04:27:46;;;;;;;2.70;1.58;;;;;;;;;;5026047;28;20060;-66
2023/03/08 04:30:13;;;;;;;3.58;2.22;;;;;;;;;;5007058;28;20052;-66
2023/03/08 04:32:39;;;;;;;3.10;2.00;;;;;;;;;;5028763;28;20061;-66
2023/03/08 04:35:05;;;;;;;3.55;2.13;;;;;;;;;;5028158;28;21095;-65
2023/03/08 04:37:31;;;;;;;5.60;2.08;;;;;;;;;;5010962;28;20049;-66
2023/03/08 04:39:57;;;;;;;6.50;2.50;;;;;;;;;;5009675;28;20045;-66
2023/03/08 04:42:23;;;;;;;8.25;2.75;;;;;;;;;;5010385;28;20099;-66
2023/03/08 04:44:49;;;;;;;4.47;2.65;;;;;;;;;;5027561;28;20037;-66
2023/03/08 04:47:15;;;;;;;4.47;2.88;;;;;;;;;;5028385;28;20037;-66
2023/03/08 04:49:41;;;;;;;3.88;2.55;;;;;;;;;;5028034;28;20505;-65
2023/03/08 04:52:07;;;;;;;3.58;2.20;;;;;;;;;;5009874;28;20171;-66
2023/03/08 04:54:33;;;;;;;3.35;2.42;;;;;;;;;;5010061;28;20054;-66
2023/03/08 04:56:59;;;;;;;3.53;2.17;;;;;;;;;;5010405;28;20045;-66
2023/03/08 04:59:25;;;;;;;4.90;2.55;;;;;;;;;;5008547;28;20046;-66
2023/03/08 05:01:51;;;;;;;8.68;3.28;;;;;;;;;;5010122;28;20103;-66
2023/03/08 05:04:17;;;;;;;5.38;2.65;;;;;;;;;;5027397;28;20033;-66
2023/03/08 05:06:43;;;;;;;6.25;3.13;;;;;;;;;;5028455;28;20048;-65
2023/03/08 05:09:09;;;;;;;9.25;3.10;;;;;;;;;;5005094;28;20466;-66
2023/03/08 05:11:35;;;;;;;4.25;2.95;;;;;;;;;;5026396;28;20124;-65
2023/03/08 05:14:01;;;;;;;7.35;3.75;;;;;;;;;;5010719;28;20054;-67
2023/03/08 05:16:27;;;;;;;7.53;3.42;;;;;;;;;;5027837;28;20041;-66
2023/03/08 05:18:53;;;;;;;5.30;3.88;;;;;;;;;;5027710;28;20403;-66
2023/03/08 05:21:21;;;;;;;7.35;3.85;;;;;;;;;;4992001;28;20045;-65
2023/03/08 05:23:47;;;;;;;7.95;4.68;;;;;;;;;;5022109;28;20208;-66
2023/03/08 05:26:14;;;;;;;5.60;4.82;;;;;;;;;;5009024;28;20087;-66
2023/03/08 05:28:43;;;;;;;7.03;5.15;;;;;;;;;;5026568;28;20045;-65
2023/03/08 05:31:12;;;;;;;12.00;7.80;;;;;;;;;;5027559;28;20056;-65
2023/03/08 05:33:38;;;;;;;9.50;5.32;;;;;;;;;;5009272;28;20049;-65
2023/03/08 05:36:04;;;;;;;7.65;5.63;;;;;;;;;;5027209;28;20091;-65
2023/03/08 05:38:31;;;;;;;10.60;5.57;;;;;;;;;;5027523;28;20077;-65
2023/03/08 05:41:01;;;;;;;8.63;5.72;;;-1.20;99.90;;;;;;5008614;28;20110;-66
2023/03/08 05:43:27;;;;;;;7.28;4.18;;;;;;;;;;5026920;28;20719;-65
2023/03/08 05:45:54;;;;;;;7.20;5.60;;;;;;;;;;5009398;28;20037;-65
2023/03/08 05:48:20;;;;;;;6.25;5.47;;;;;;;;;;5023952;28;20045;-66
2023/03/08 05:50:46;;;;;;;7.95;5.28;;;;;;;;;;5024629;28;20037;-66
2023/03/08 05:53:11;;;;;;;8.63;5.57;;;;;;;;;;5008862;28;20076;-66
2023/03/08 05:55:37;;;;;;;7.78;5.22;;;;;;;;;;5009228;28;20045;-66
2023/03/08 05:58:03;;;;;;;11.50;5.60;;;;;;;;;;5027145;28;20797;-65
2023/03/08 06:00:29;;;;;;;7.85;5.47;;;;;;;;;;5026784;28;20412;-66
2023/03/08 06:02:58;;;;;;;7.35;5.10;;;;;;;;;;5008579;28;20046;-66
2023/03/08 06:05:24;;;;;;;10.15;6.20;;;;;;;;;;5008680;28;20068;-65
2023/03/08 06:07:50;;;;;;;8.30;5.57;;;;;;;;;;5025900;28;20045;-66
2023/03/08 06:10:16;;;;;;;10.25;6.07;;;;;;;;;;5008860;28;20525;-66
2023/03/08 06:12:42;;;;;;;8.85;6.28;;;;;;;;;;5009044;28;20106;-66
2023/03/08 06:15:08;;;;;;;8.90;7.10;;;;;;;;;;5008698;28;20466;-66
2023/03/08 06:17:34;;;;;;;8.30;6.70;;;;;;;;;;5024497;28;20117;-66
2023/03/08 06:20:00;;;;;;;11.98;7.10;;;;;;;;;;5005152;28;20067;-66
2023/03/08 06:22:26;;;;;;;11.05;7.57;;;-1.40;99.90;;;;;;5008523;28;20052;-65
2023/03/08 06:24:53;;;;;;;10.38;6.47;;;;;;;;;;5008265;28;20404;-66
2023/03/08 06:27:19;;;;;;;11.43;7.45;;;;;;;;;;5025385;28;20052;-65
2023/03/08 06:29:47;;;;;;;11.73;8.00;;;;;;;;;;5004532;28;20041;-65
2023/03/08 06:32:13;;;;;;;12.60;6.82;;;;;;;;;;5025591;28;20411;-65
2023/03/08 06:34:39;;;;;;;9.85;7.32;;;;;;;;;;5026108;28;20092;-65
2023/03/08 06:37:05;;;;;;;13.02;8.23;;;;;;;;;;5008042;28;20041;-65
2023/03/08 06:39:31;;;;;;;7.88;6.50;;;;;;;;;;5003707;28;20559;-66
2023/03/08 06:42:00;;;;;;;8.50;6.75;;;;;;;;;;5006631;28;20049;-65
2023/03/08 06:44:26;;;;;;;9.57;6.53;;;;;;;;;;5022011;28;20041;-65
2023/03/08 06:46:52;;;;;;;14.82;7.60;;;;;;;;;;5008131;28;20475;-66
2023/03/08 06:49:18;;;;;;;11.98;7.47;;;;;;;;;;5021194;28;20037;-66
2023/03/08 06:51:44;;;;;;;7.43;6.05;;;;;;;;;;5024370;28;20136;-66
2023/03/08 06:54:10;;;;;;;10.70;6.53;;;;;;;;;;5025346;28;20132;-66
2023/03/08 06:56:35;;;;;;;9.68;6.45;;;;;;;;;;4991542;28;20155;-66
2023/03/08 06:59:01;;;;;;;9.73;5.95;;;;;;;;;;5019293;28;20052;-71
2023/03/08 07:01:27;;;;;;;12.43;6.05;;;;;;;;;;5002426;28;20495;-68
2023/03/08 07:03:54;;;;;;;9.88;6.90;;;;;;;;;;5006116;28;20041;-67
2023/03/08 07:06:19;;;;;;;11.60;6.63;;;;;;;;;;5025177;28;20514;-67
2023/03/08 07:08:46;;;;;;;9.73;6.63;;;;;;;;;;5003499;28;20047;-68
2023/03/08 07:11:12;;;;;;;10.27;6.35;;;;;;;;;;5005037;28;20065;-68
2023/03/08 07:13:38;;;;;;;8.43;6.70;;;;;;;;;;5007057;28;20504;-69
2023/03/08 07:16:08;;;;;;;10.80;6.50;;;;;;;;;;5007688;28;20037;-68
2023/03/08 07:18:34;;;;;;;10.85;6.68;;;;;;;;;;5025644;28;20065;-69
2023/03/08 07:21:00;;;;;;;10.15;6.30;;;;;;;;;;5009065;28;20084;-69
2023/03/08 07:23:26;;;;;;;9.23;6.53;;;;;;;;;;5023881;28;20088;-69
2023/03/08 07:25:52;;;;;;;11.25;6.85;;;;;;;;;;5024566;28;20037;-69
2023/03/08 07:28:18;;;;;;;9.90;6.22;;;;;;;;;;5025040;28;20145;-68
2023/03/08 07:30:48;;;;;;;10.60;6.40;;;;;;;;;;5006498;28;20041;-69
2023/03/08 07:33:14;;;;;;;10.63;6.97;;;;;;;;;;5024265;28;20041;-69
2023/03/08 07:35:40;;;;;;;10.65;6.13;;;;;;;;;;5009349;28;20053;-67
2023/03/08 07:38:06;;;;;;;10.50;6.30;;;;;;;;;;5010735;28;20478;-68
2023/03/08 07:40:32;;;;;;;10.45;5.90;;;;;;;;;;5007446;28;20057;-69
2023/03/08 07:42:59;;;;;;;6.82;5.47;;;;;;;;;;5008863;28;20042;-67
2023/03/08 07:45:25;;;;;;;14.43;6.20;;;;;;;;;;5007925;28;20124;-70
2023/03/08 07:47:51;;;;;;;8.18;6.20;;;;;;;;;;5006905;28;20052;-71
2023/03/08 07:50:18;;;;;;;8.95;6.50;;;;;;;;;;5024855;28;20091;-68
2023/03/08 07:52:44;;;;;;;9.38;6.22;;;;;;;;;;5027660;28;20061;-70
2023/03/08 07:55:10;;;;;;;11.18;6.90;;;;;;;;;;5010149;28;20415;-67
2023/03/08 07:57:36;;;;;;;8.30;5.85;;;;;;;;;;4995768;28;20037;-69
2023/03/08 08:00:06;;;;;;;8.27;5.93;;;;;;;;;;5034637;28;20057;-69
2023/03/08 08:02:32;;;;;;;7.85;6.25;;;;;;;;;;5030309;28;20729;-69
2023/03/08 08:04:58;;;;;;;7.88;5.80;;;;;;;;;;5016695;28;20050;-71
2023/03/08 08:07:24;;;;;;;10.85;6.47;;;;;;;;;;5014573;28;20038;-70
2023/03/08 08:09:50;;;;;;;6.75;5.50;;;;;;;;;;5013796;28;20056;-69
2023/03/08 08:12:16;;;;;;;9.98;5.35;;;;;;;;;;5031850;28;20041;-69
2023/03/08 08:14:43;;;;;;;10.57;4.93;;;;;;;;;;5015230;28;20041;-68
2023/03/08 08:17:09;;;;;;;11.20;4.68;;;;;;;;;;5017917;28;20103;-69
2023/03/08 08:19:35;;;;;;;6.72;4.82;;;;;;;;;;5030319;28;20041;-69
2023/03/08 08:22:01;;;;;;;7.30;4.68;;;;;;;;;;5019287;28;20052;-69
2023/03/08 08:24:27;;;;;;;8.27;4.82;;;;;;;;;;5015535;28;20124;-68
2023/03/08 08:26:53;;;;;;;7.50;4.68;;;;;;;;;;5016785;28;20199;-69
2023/03/08 08:29:19;;;;;;;7.57;4.45;;;;;;;;;;5026583;28;20128;-69
2023/03/08 08:31:45;;;;;;;5.50;4.80;;;;;;;;;;5017251;28;20091;-70
2023/03/08 08:34:11;;;;;;;5.30;4.25;;;;;;;;;;5014969;28;20109;-69
2023/03/08 08:36:37;;;;;;;9.15;4.65;;;;;;;;;;5019507;28;20107;-68
2023/03/08 08:39:03;;;;;;;5.65;4.30;;;;;;;;;;5011320;28;20056;-68
2023/03/08 08:41:31;;;;;;;6.30;4.20;;;;;;;;;;5028301;28;20503;-69
2023/03/08 08:43:58;;;;;;;6.20;4.63;;;;;;;;;;5011832;28;20119;-69
2023/03/08 08:46:24;;;;;;;7.18;4.28;;;;;;;;;;5011671;28;20081;-69
2023/03/08 08:48:50;;;;;;;6.20;4.35;;;;;;;;;;5027823;28;20136;-69
2023/03/08 08:51:16;;;;;;;6.78;4.25;;;;;;;;;;5010825;28;20069;-68
2023/03/08 08:53:43;;;;;;;8.43;4.53;;;;;;;;;;5031411;28;20152;-68
2023/03/08 08:56:13;;;;;;;7.13;5.57;;;;;;;;;;5012615;28;20088;-69
2023/03/08 08:58:39;;;;;;;10.88;5.65;;;;;;;;;;5024740;28;20055;-67
2023/03/08 09:01:12;;;;;;;6.40;5.25;;;;;;;;;;5024701;28;20059;-68
2023/03/08 09:03:37;;;;;;;6.85;5.65;;;;;;;;;;5029010;28;20329;-66
2023/03/08 09:06:03;;;;;;;9.90;5.25;;;2.40;99.90;;;;;;5028611;28;20119;-68
2023/03/08 09:08:29;;;;;;;8.48;6.03;;;;;;;;;;5016797;28;20053;-69
2023/03/08 09:10:55;;;;;;;7.95;4.70;;;;;;;;;;5027988;28;20041;-67
2023/03/08 09:13:21;;;;;;;8.80;5.53;;;;;;;;;;5030385;28;20823;-69
2023/03/08 09:15:47;;;;;;;8.05;6.05;;;;;;;;;;5030831;28;20076;-68
2023/03/08 09:18:13;;;;;;;9.27;6.20;;;;;;;;;;5031671;28;20187;-68
2023/03/08 09:20:39;;;;;;;8.35;6.03;;;;;;;;;;5010380;28;20407;-69
2023/03/08 09:23:05;;;;;;;8.68;5.72;;;;;;;;;;5031837;28;20029;-68
2023/03/08 09:25:31;;;;;;;8.15;6.00;;;;;;;;;;5017168;28;20060;-69
2023/03/08 09:27:57;;;;;;;6.07;5.10;;;;;;;;;;4997703;28;20042;-70
2023/03/08 09:30:23;;;;;;;7.45;5.15;;;;;;;;;;5030503;28;20160;-68
2023/03/08 09:32:49;;;;;;;9.05;5.57;;;;;;;;;;5012468;28;20052;-67
2023/03/08 09:35:16;;;;;;;6.60;4.90;;;;;;;;;;4999722;28;20045;-68
2023/03/08 09:37:42;;;;;;;7.72;5.45;;;;;;;;;;5028741;28;20486;-68
2023/03/08 09:40:13;;;;;;;6.38;5.00;;;;;;;;;;5030784;28;20048;-69
2023/03/08 09:42:39;;;;;;;8.77;4.32;;;;;;;;;;5031664;28;20739;-68
2023/03/08 09:45:11;;;;;;;7.22;4.85;;;;;;;;;;5013445;28;20092;-68
2023/03/08 09:47:40;;;;;;;10.80;4.78;;;;;;;;;;5011649;28;20103;-68
2023/03/08 09:50:14;;;;;;;11.68;5.28;;;;;;;;;;5008007;28;20399;-68
2023/03/08 09:52:50;;;;;;;5.40;4.47;;;;;;;;;;5009099;28;20910;-69
2023/03/08 09:55:27;;;;;;;9.45;4.93;;;;;;;;;;5011400;28;20064;-69
2023/03/08 09:57:55;;;;;;;7.00;4.72;;;;;;;;;;5023269;28;20052;-69
2023/03/08 10:00:27;;;;;;;6.72;4.50;;;;;;;;;;5023171;28;20037;-69
2023/03/08 10:02:53;;;;;;;6.15;4.50;;;;;;;;;;5014691;28;20524;-68
2023/03/08 10:05:31;;;;;;;7.40;4.18;;;4.30;99.90;;;;;;5015684;28;20128;-69
2023/03/08 10:08:04;;;;;;;6.18;4.20;;;;;;;;;;5006574;28;20754;-69
2023/03/08 10:10:40;;;;;;;8.32;4.88;;;;;;;;;;5025431;28;20049;-70
2023/03/08 10:13:15;;;;;;;4.97;3.53;;;;;;;;;;5027052;28;20044;-69
2023/03/08 10:15:44;;;;;;;3.90;3.53;;;;;;;;;;5012965;28;20057;-69
2023/03/08 10:18:17;;;;;;;7.18;3.85;;;;;;;;;;5030001;28;20044;-69
2023/03/08 10:20:43;;;;;;;5.22;3.50;;;;;;;;;;5027442;28;20184;-69
2023/03/08 10:23:12;;;;;;;7.72;4.20;;;;;;;;;;5027893;28;20037;-70
2023/03/08 10:25:38;;;;;;;6.68;4.18;;;;;;;;;;5015330;28;20052;-68
2023/03/08 10:28:10;;;;;;;4.00;3.40;;;;;;;;;;5033218;28;20045;-67
2023/03/08 10:30:39;;;;;;;8.35;3.22;;;;;;;;;;5015109;28;20118;-72
2023/03/08 10:33:10;;;;;;;5.03;2.45;;;;;;;;;;5008820;28;20522;-68
2023/03/08 10:35:38;;;;;;;5.25;2.92;;;;;;;;;;5006461;28;20049;-68
2023/03/08 10:38:05;;;;;;;2.80;2.53;;;;;;;;;;5022678;28;20828;-69
2023/03/08 10:40:31;;;;;;;3.75;3.03;;;;;;;;;;5021483;28;20054;-67
2023/03/08 10:43:00;;;;;;;3.20;2.70;;;;;;;;;;5025195;28;20398;-68
2023/03/08 10:45:27;;;;;;;2.63;2.42;;;7.00;99.90;;;;;;5005840;28;20048;-68
2023/03/08 10:47:55;;;;;;;4.50;1.75;;;;;;;;;;5022162;28;20491;-68
2023/03/08 10:50:22;;;;;;;2.70;2.20;;;;;;;;;;5022332;28;20079;-68
2023/03/08 10:52:52;;;;;;;4.88;2.50;;;;;;;;;;5024343;28;20057;-69
2023/03/08 10:55:19;;;;;;;5.60;1.90;;;;;;;;;;5025640;28;20091;-69
2023/03/08 10:58:01;;;;;;;4.88;1.70;;;;;;;;;;5023432;28;20030;-68
2023/03/08 11:00:32;;;;;;;4.07;2.13;;;;;;;;;;5021845;28;20046;-68
2023/03/08 11:03:10;;;;;;;3.63;2.17;;;;;;;;;;5025312;28;20037;-69
2023/03/08 11:05:36;;;;;;;4.47;1.70;;;;;;;;;;5007495;28;20104;-68
2023/03/08 11:08:03;;;;;;;2.58;1.75;;;;;;;;;;5022030;28;20120;-68
2023/03/08 11:10:31;;;;;;;4.07;2.72;;;;;;;;;;5005040;28;20060;-68
2023/03/08 11:13:06;;;;;;;3.38;2.42;;;;;;;;;;5025500;28;20045;-67
2023/03/08 11:15:34;;;;;;;3.17;2.13;;;;;;;;;;5024303;28;20046;-67
2023/03/08 11:18:12;;;;;;;3.55;1.80;;;;;;;;;;5006471;28;20708;-68
2023/03/08 11:20:48;;;;;;;5.60;2.05;;;;;;;;;;5005379;28;20051;-67
2023/03/08 11:23:17;;;;;;;3.33;1.90;;;;;;;;;;5004372;28;20175;-68
2023/03/08 11:25:49;;;;;;;2.55;1.73;;;;;;;;;;5024587;28;20426;-68
2023/03/08 11:28:18;;;;;;;6.13;1.75;;;;;;;;;;5024388;28;20136;-68
2023/03/08 11:30:44;;;;;;;4.10;2.33;;;;;;;;;;5025372;28;20052;-68
2023/03/08 11:33:26;;;;;;;2.30;1.60;;;;;;;;;;5025090;28;20049;-68
2023/03/08 11:35:58;;;;;;;3.15;2.28;;;;;;;;;;5006834;28;20053;-68
2023/03/08 11:38:25;;;;;;;2.78;1.70;;;;;;;;;;5004632;28;20142;-67
2023/03/08 11:41:10;;;;;;;4.93;2.30;;;;;;;;;;5020483;28;20502;-72
2023/03/08 11:43:36;;;;;;;6.17;2.20;;;;;;;;;;5005840;28;20042;-70
2023/03/08 11:46:09;;;;;;;5.10;2.00;;;;;;;;;;5024965;28;20037;-71
2023/03/08 11:48:41;;;;;;;3.50;2.10;;;;;;;;;;5023546;28;20065;-70
2023/03/08 11:51:10;;;;;;;3.55;2.17;;;;;;;;;;5006235;28;20570;-67
2023/03/08 11:53:58;;;;;;;3.33;1.60;;;4.80;99.90;;;;;;5024938;28;20120;-68
2023/03/08 11:56:42;;;;;;;3.25;1.83;;;;;;;;;;5024297;28;20069;-70
2023/03/08 11:59:20;;;;;;;4.13;2.03;;;;;;;;;;5023312;28;20091;-67
2023/03/08 12:01:56;;;;;;;3.30;1.90;;;;;;;;;;5005969;28;20518;-70
2023/03/08 12:04:27;;;;;;;2.00;1.60;;;;;;;;;;5023823;28;20044;-66
2023/03/08 12:06:53;;;;;;;6.53;2.05;;;4.70;99.90;;;;;;5024289;28;20041;-67
2023/03/08 12:09:30;;;;;;;3.92;1.80;;;4.70;99.90;;;;;;5020163;28;20102;-67
2023/03/08 12:12:11;;;;;;;2.92;2.13;;;;;;;;;;5006354;28;20753;-67
2023/03/08 12:14:44;;;;;;;5.72;2.50;;;;;;;;;;5004539;28;20053;-67
2023/03/08 12:17:18;;;;;;;3.88;1.52;;;4.70;99.90;;;;;;5006872;28;20136;-69
2023/03/08 12:19:49;;;;;;;4.32;1.60;;;4.40;99.90;;;;;;5008438;28;20041;-68
2023/03/08 12:22:44;;;;;;;1.90;1.30;;;;;;;;;;5010659;28;20048;-68
2023/03/08 12:25:30;;;;;;;3.05;1.60;;;;;;;;;;5012532;28;20050;-70
2023/03/08 12:27:56;;;;;;;;;;;;;;;;;;5024936;28;20044;-68
2023/03/08 12:30:28;;;;;;;4.50;2.33;;;;;;;;;;5025190;28;19924;-69
2023/03/08 12:32:55;;;;;;;3.63;1.70;;;4.40;99.90;;;;;;5012459;28;20131;-69
2023/03/08 12:35:29;;;;;;;4.22;1.88;;;;;;;;;;5025551;28;20049;-69
2023/03/08 12:38:18;;;;;;;3.30;1.45;;;;;;;;;;5008274;28;20046;-69
2023/03/08 12:40:44;;;;;;;4.43;1.65;;;;;;;;;;4998478;28;20111;-70
2023/03/08 12:43:19;;;;;;;2.78;1.73;;;5.10;99.90;;;;;;5010996;28;20076;-70
2023/03/08 12:46:05;;;;;;;2.83;1.65;;;;;;;;;;5028471;28;20798;-69
2023/03/08 12:48:46;;;;;;;5.15;2.20;;;4.80;99.90;;;;;;5010329;28;20056;-70
2023/03/08 12:51:12;;;;;;;3.03;1.90;;;;;;;;;;5010121;28;20343;-68
2023/03/08 12:53:40;;;;;;;2.88;1.80;;;;;;;;;;5010660;28;20491;-68
2023/03/08 12:56:06;;;;;;;2.60;1.80;;;;;;;;;;5027986;28;20636;-68
2023/03/08 12:58:33;;;;;;;5.07;1.90;;;;;;;;;;4997195;28;20092;-67
2023/03/08 13:01:04;;;;;;;3.00;1.80;;;;;;;;;;5028425;28;20486;-67
2023/03/08 13:03:40;;;;;;;3.38;2.05;;;;;;;;;;5028618;28;20038;-68
2023/03/08 13:06:45;;;;;;;3.45;2.00;;;4.90;99.90;;;;;;5009732;28;20041;-70
2023/03/08 13:09:31;;;;;;;3.85;2.20;;;;;;;;;;5011095;28;20041;-68
2023/03/08 13:12:22;;;;;;;3.35;2.08;;;4.70;99.90;;;;;;5025556;28;20111;-68
2023/03/08 13:15:12;;;;;;;4.00;1.95;;;4.70;99.90;;;;;;5027354;28;20120;-69
2023/03/08 13:17:47;;;;;;;4.35;3.35;;;;;;;;;;5023131;28;20511;-68
2023/03/08 13:20:33;;;;;;;3.92;2.25;;;4.40;99.90;;;;;;5022453;28;20041;-69
2023/03/08 13:23:01;;;;;;;5.53;2.88;;;;;;;;;;5024708;28;20750;-68
2023/03/08 13:25:36;;;;;;;3.38;1.70;;;;;;;;;;5008051;28;20491;-69
2023/03/08 13:28:04;;;;;;;5.95;2.08;;;;;;;;;;5007629;28;20216;-67
2023/03/08 13:30:38;;;;;;;6.80;1.92;;;;;;;;;;5023802;28;20056;-67
2023/03/08 13:33:08;;;;;;;3.00;2.13;;;;;;;;;;5023886;28;20061;-69
2023/03/08 13:35:34;;;;;;;4.07;1.95;;;;;;;;;;5009043;28;20103;-69
2023/03/08 13:38:00;;;;;;;3.42;2.15;;;4.30;99.90;;;;;;5027126;28;20045;-71
2023/03/08 13:40:28;;;;;;;6.55;2.30;;;4.90;99.90;;;;;;5026363;28;20509;-71
2023/03/08 13:42:54;;;;;;;6.13;2.28;;;;;;;;;;5027353;28;20115;-71
2023/03/08 13:45:20;;;;;;;3.42;2.38;;;;;;;;;;5009193;28;20041;-70
2023/03/08 13:47:47;;;;;;;3.63;2.40;;;;;;;;;;5026761;28;20423;-71
2023/03/08 13:50:45;;;;;;;3.90;2.30;;;;;;;;;;5008758;28;20122;-71
2023/03/08 13:53:16;;;;;;;3.90;2.40;;;;;;;;;;4982946;28;20148;-71
2023/03/08 13:55:43;;;;;;;5.53;2.47;;;;;;;;;;5008914;28;20057;-70
2023/03/08 13:58:18;;;;;;;4.70;2.45;;;;;;;;;;5005230;28;20132;-68
2023/03/08 14:00:45;;;;;;;4.63;2.22;;;;;;;;;;5005270;28;20685;-69
2023/03/08 14:03:19;;;;;;;5.22;2.30;;;;;;;;;;5026805;28;20045;-69
2023/03/08 14:05:45;;;;;;;5.53;2.00;;;;;;;;;;5008913;28;20069;-70
2023/03/08 14:08:18;;;;;;;4.07;1.70;;;;;;;;;;5005451;28;20088;-70
2023/03/08 14:10:45;;;;;;;3.85;1.77;;;;;;;;;;5005428;28;20076;-72
2023/03/08 14:13:26;;;;;;;2.42;1.83;;;;;;;;;;5026041;28;20037;-68
2023/03/08 14:15:53;;;;;;;5.22;2.00;;;;;;;;;;5007147;28;20041;-71
2023/03/08 14:18:24;;;;;;;3.45;1.80;;;;;;;;;;5026300;28;20120;-69
2023/03/08 14:21:19;;;;;;;4.80;1.42;;;;;;;;;;5026105;28;20454;-69
2023/03/08 14:23:50;;;;;;;2.58;1.52;;;;;;;;;;4990450;28;20057;-70
2023/03/08 14:26:23;;;;;;;2.83;1.92;;;;;;;;;;5009670;28;20073;-68
2023/03/08 14:28:50;;;;;;;2.65;1.90;;;;;;;;;;5006264;28;20083;-69
2023/03/08 14:31:28;;;;;;;3.03;1.80;;;;;;;;;;5026860;28;20053;-68
2023/03/08 14:34:02;;;;;;;3.03;1.55;;;;;;;;;;5026180;28;20442;-70
2023/03/08 14:36:29;;;;;;;7.03;2.20;;;;;;;;;;5009636;28;20049;-70
2023/03/08 14:38:55;;;;;;;4.93;2.08;;;;;;;;;;5021960;28;20134;-70
2023/03/08 14:41:29;;;;;;;4.60;1.63;;;;;;;;;;5005812;28;20041;-71